Terminal Aerodrome Forecast
Issued by NWS

Home | Current Version | Previous Version | Text Only | Print | Product List | Glossary On
Versions: 1 2 3 4 5 6 7 8 9 10 11 12 13 14
000
FTUS44 KOUN 221732
TAFWWR
TAF
KWWR 221732Z 2218/2318 22008KT P6SM VCSH SCT029 BKN070
      TEMPO 2218/2220 -SHRA
     FM222000 29006KT P6SM SCT029 BKN060
     FM230700 33012KT P6SM BKN040
     FM231400 33014G20KT P6SM BKN035=

USA.gov is the U.S. government's official web portal to all federal, state and local government web resources and services.